createdAt,value
2022-10-16T00:13:06.534Z,16.20
2022-10-16T00:18:08.326Z,15.90
2022-10-16T00:23:11.643Z,15.60
2022-10-16T00:28:13.707Z,16.00
2022-10-16T00:33:15.593Z,16.50
2022-10-16T00:38:18.276Z,14.70
2022-10-16T00:43:39.525Z,18.60
2022-10-16T00:48:48.733Z,16.80
2022-10-16T00:54:09.263Z,17.60
2022-10-16T00:59:27.343Z,16.90
2022-10-16T01:04:35.588Z,19.80
2022-10-16T01:09:48.428Z,19.00
2022-10-16T01:15:15.830Z,17.40
2022-10-16T01:20:22.436Z,18.70
2022-10-16T01:25:38.200Z,19.20
2022-10-16T01:30:43.076Z,18.90
2022-10-16T01:35:53.239Z,19.60
2022-10-16T01:41:02.328Z,20.20
2022-10-16T01:46:04.917Z,19.50
2022-10-16T01:51:19.329Z,19.80
2022-10-16T01:56:23.756Z,18.20
2022-10-16T02:01:30.736Z,19.20
2022-10-16T02:06:33.130Z,18.80
2022-10-16T02:11:34.903Z,17.90
2022-10-16T02:16:43.049Z,17.80
2022-10-16T02:21:57.454Z,16.30
2022-10-16T02:27:06.755Z,18.50
2022-10-16T02:32:11.368Z,17.20
2022-10-16T02:37:13.731Z,17.70
2022-10-16T02:42:16.420Z,17.90
2022-10-16T02:47:18.345Z,16.30
2022-10-16T02:52:20.204Z,17.20
2022-10-16T02:57:22.196Z,15.00
2022-10-16T03:02:24.284Z,17.50
2022-10-16T03:07:26.697Z,17.50
2022-10-16T03:12:28.869Z,18.70
2022-10-16T03:17:32.530Z,17.30
2022-10-16T03:22:34.448Z,17.30
2022-10-16T03:27:36.540Z,17.50
2022-10-16T03:32:50.725Z,17.90
2022-10-16T03:37:53.048Z,17.30
2022-10-16T03:42:58.412Z,18.00
2022-10-16T03:48:00.292Z,16.90
2022-10-16T03:53:02.269Z,17.90
2022-10-16T03:58:04.383Z,17.80
2022-10-16T04:03:18.717Z,18.00
2022-10-16T04:08:20.600Z,16.60
2022-10-16T04:13:22.817Z,16.60
2022-10-16T04:18:24.832Z,15.90
2022-10-16T04:23:26.633Z,17.40
2022-10-16T04:28:28.928Z,17.30
2022-10-16T04:33:31.035Z,17.80
2022-10-16T04:38:33.023Z,19.50
2022-10-16T04:43:35.902Z,20.90
2022-10-16T04:48:37.809Z,19.50
2022-10-16T04:53:39.626Z,17.30
2022-10-16T04:58:47.685Z,20.00
2022-10-16T05:04:03.309Z,20.30
2022-10-16T05:09:06.154Z,21.20
2022-10-16T05:14:08.083Z,21.70
2022-10-16T05:24:31.852Z,25.20
2022-10-16T05:29:33.784Z,34.20
2022-10-16T05:34:35.760Z,24.90
2022-10-16T05:39:38.247Z,22.90
2022-10-16T05:44:40.328Z,23.10
2022-10-16T05:49:49.708Z,22.60
2022-10-16T05:54:58.072Z,22.10
2022-10-16T06:00:00.304Z,20.40
2022-10-16T06:05:02.154Z,19.70
2022-10-16T06:10:05.431Z,20.70
2022-10-16T06:15:07.986Z,19.80
2022-10-16T06:20:10.071Z,18.60
2022-10-16T06:25:11.822Z,22.50
2022-10-16T06:30:14.840Z,20.70
2022-10-16T06:35:41.714Z,20.70
2022-10-16T06:40:54.925Z,19.70
2022-10-16T06:46:02.413Z,20.70
2022-10-16T06:51:13.454Z,25.90
2022-10-16T06:56:21.363Z,32.00
2022-10-16T07:01:24.874Z,22.70
2022-10-16T07:06:28.163Z,20.40
2022-10-16T07:11:30.264Z,17.50
2022-10-16T07:16:33.900Z,18.00
2022-10-16T07:21:36.999Z,17.50
2022-10-16T07:26:40.314Z,17.80
2022-10-16T07:31:43.581Z,16.50
2022-10-16T07:36:45.568Z,15.90
2022-10-16T07:41:47.433Z,14.50
2022-10-16T07:47:03.103Z,13.20
2022-10-16T07:52:05.068Z,13.10
2022-10-16T07:57:06.820Z,13.70
2022-10-16T08:02:08.867Z,12.90
2022-10-16T08:07:10.774Z,13.90
2022-10-16T08:12:12.667Z,13.10
2022-10-16T08:17:15.646Z,13.40
2022-10-16T08:22:17.730Z,13.10
2022-10-16T08:27:19.581Z,12.60
2022-10-16T08:32:24.020Z,11.50
2022-10-16T08:37:33.542Z,11.80
2022-10-16T08:42:47.912Z,12.00
2022-10-16T08:48:01.955Z,11.10
2022-10-16T08:53:06.157Z,12.10
2022-10-16T08:58:28.830Z,10.30
2022-10-16T09:04:00.332Z,12.20
2022-10-16T09:09:26.890Z,11.90
2022-10-16T09:14:50.016Z,11.50
2022-10-16T09:20:11.585Z,11.10
2022-10-16T09:25:21.320Z,11.30
2022-10-16T09:30:24.172Z,11.50
2022-10-16T09:35:36.646Z,12.30
2022-10-16T09:40:42.740Z,10.50
2022-10-16T09:45:55.271Z,11.80
2022-10-16T09:51:03.336Z,11.80
2022-10-16T09:56:10.372Z,13.20
2022-10-16T10:01:16.597Z,10.60
2022-10-16T10:06:29.279Z,10.20
2022-10-16T10:11:50.645Z,10.40
2022-10-16T10:17:02.562Z,10.50
2022-10-16T10:22:19.762Z,9.60
2022-10-16T10:27:24.927Z,10.60
2022-10-16T10:32:39.058Z,10.90
2022-10-16T10:43:26.396Z,14.20
2022-10-16T10:48:35.324Z,10.10
2022-10-16T10:53:43.251Z,8.20
2022-10-16T10:59:11.450Z,9.70
2022-10-16T11:04:40.349Z,8.40
2022-10-16T11:10:14.371Z,10.60
2022-10-16T11:15:30.027Z,8.50
2022-10-16T11:20:41.234Z,9.60
2022-10-16T11:25:45.378Z,10.00
2022-10-16T11:30:52.865Z,8.80
2022-10-16T11:36:00.318Z,10.30
2022-10-16T11:41:16.624Z,10.70
2022-10-16T11:46:23.083Z,10.70
2022-10-16T11:51:37.989Z,11.30
2022-10-16T11:56:42.812Z,10.40
2022-10-16T12:02:07.817Z,10.40
2022-10-16T12:07:25.728Z,9.60
2022-10-16T12:12:37.367Z,9.30
2022-10-16T12:17:39.862Z,10.10
2022-10-16T12:22:49.337Z,10.60
2022-10-16T12:28:19.390Z,11.10
2022-10-16T12:33:27.571Z,10.00
2022-10-16T12:38:55.709Z,9.10
2022-10-16T12:43:59.618Z,9.70
2022-10-16T12:49:25.589Z,9.80
2022-10-16T12:54:38.864Z,10.80
2022-10-16T12:59:49.717Z,9.50
2022-10-16T13:05:10.214Z,10.60
2022-10-16T13:10:36.873Z,8.70
2022-10-16T13:15:50.558Z,9.50
2022-10-16T13:21:07.840Z,10.00
2022-10-16T13:26:22.756Z,10.80
2022-10-16T13:31:26.242Z,9.40
2022-10-16T13:36:32.002Z,8.80
2022-10-16T13:41:33.865Z,9.50
2022-10-16T13:46:35.659Z,10.40
2022-10-16T13:51:37.714Z,11.10
2022-10-16T13:56:41.269Z,10.00
2022-10-16T14:01:55.288Z,10.10
2022-10-16T14:06:57.155Z,10.40
2022-10-16T14:12:12.560Z,10.80
2022-10-16T14:17:33.775Z,12.00
2022-10-16T14:22:47.672Z,10.50
2022-10-16T14:33:27.697Z,10.70
2022-10-16T14:38:30.338Z,10.50
2022-10-16T14:43:37.618Z,9.60
2022-10-16T14:48:43.947Z,9.70
2022-10-16T14:53:46.434Z,10.40
2022-10-16T14:58:50.770Z,9.40
2022-10-16T15:03:54.931Z,9.90
2022-10-16T15:08:56.998Z,11.50
2022-10-16T15:13:59.030Z,12.20
2022-10-16T15:19:07.215Z,12.20
2022-10-16T15:24:16.506Z,10.80
2022-10-16T15:29:21.284Z,12.80
2022-10-16T15:34:23.110Z,13.50
2022-10-16T15:39:24.957Z,13.90
2022-10-16T15:44:30.994Z,15.90
2022-10-16T15:49:32.993Z,18.50
2022-10-16T15:54:35.073Z,15.10
2022-10-16T15:59:36.865Z,14.50
2022-10-16T16:04:43.857Z,13.50
2022-10-16T16:09:46.682Z,14.70
2022-10-16T16:14:50.135Z,12.80
2022-10-16T16:19:52.345Z,14.00
2022-10-16T16:24:54.530Z,17.30
2022-10-16T16:29:57.022Z,17.60
2022-10-16T16:34:58.773Z,21.10
2022-10-16T16:40:00.681Z,23.80
2022-10-16T16:45:02.496Z,27.80
2022-10-16T16:50:06.003Z,29.30
2022-10-16T16:55:14.094Z,26.60
2022-10-16T17:00:16.164Z,23.60
2022-10-16T17:05:19.055Z,24.60
2022-10-16T17:10:21.093Z,23.00
2022-10-16T17:15:22.933Z,28.90
2022-10-16T17:20:39.792Z,27.70
2022-10-16T17:25:42.460Z,25.90
2022-10-16T17:30:44.720Z,21.30
2022-10-16T17:35:47.379Z,20.70
2022-10-16T17:40:49.190Z,22.20
2022-10-16T17:45:51.016Z,22.00
2022-10-16T17:50:52.954Z,23.60
2022-10-16T17:55:59.333Z,22.80
2022-10-16T18:01:02.158Z,19.70
2022-10-16T18:06:04.941Z,18.40
2022-10-16T18:11:06.723Z,16.90
2022-10-16T18:16:12.491Z,17.90
2022-10-16T18:21:18.176Z,19.30
2022-10-16T18:26:21.322Z,16.80
2022-10-16T18:31:26.297Z,17.40
2022-10-16T18:36:30.893Z,19.10
2022-10-16T18:41:32.842Z,18.50
2022-10-16T18:46:34.632Z,20.40
2022-10-16T18:51:40.239Z,19.10
2022-10-16T18:56:42.337Z,19.80
2022-10-16T19:01:44.449Z,20.30
2022-10-16T19:06:49.497Z,18.80
2022-10-16T19:16:54.330Z,17.90
2022-10-16T19:22:11.196Z,17.00
2022-10-16T19:32:18.491Z,17.40
2022-10-16T19:37:25.744Z,18.90
2022-10-16T19:42:27.768Z,17.70
2022-10-16T19:47:31.302Z,19.50
2022-10-16T19:52:34.277Z,19.50
2022-10-16T19:57:40.504Z,20.50
2022-10-16T20:02:42.501Z,22.40
2022-10-16T20:07:44.266Z,20.30
2022-10-16T20:12:46.180Z,19.90
2022-10-16T20:17:48.314Z,17.10
2022-10-16T20:22:50.175Z,18.40
2022-10-16T20:27:52.081Z,17.00
2022-10-16T20:32:56.989Z,18.50
2022-10-16T20:38:18.781Z,21.40
2022-10-16T20:43:35.458Z,23.80
2022-10-16T20:48:41.171Z,27.40
2022-10-16T20:53:44.436Z,28.40
2022-10-16T20:58:46.622Z,30.30
2022-10-16T21:03:57.031Z,29.40
2022-10-16T21:09:03.398Z,28.70
2022-10-16T21:14:09.216Z,26.50
2022-10-16T21:19:11.128Z,25.70
2022-10-16T21:24:16.542Z,25.10
2022-10-16T21:29:20.193Z,26.60
2022-10-16T21:34:22.896Z,26.40
2022-10-16T21:39:24.934Z,25.50
2022-10-16T21:44:26.848Z,26.20
2022-10-16T21:49:28.782Z,26.40
2022-10-16T21:54:30.763Z,46.00
2022-10-16T21:59:32.713Z,44.40
2022-10-16T22:04:34.740Z,31.00
2022-10-16T22:09:36.557Z,29.80
2022-10-16T22:14:39.776Z,29.30
2022-10-16T22:19:41.606Z,30.20
2022-10-16T22:24:43.703Z,29.30
2022-10-16T22:29:45.622Z,27.40
2022-10-16T22:34:47.503Z,27.60
2022-10-16T22:40:09.736Z,27.00
2022-10-16T22:45:12.022Z,25.60
2022-10-16T22:50:14.155Z,26.50
2022-10-16T22:55:16.205Z,27.00
2022-10-16T23:00:19.765Z,27.10
2022-10-16T23:05:21.561Z,26.40
2022-10-16T23:10:27.552Z,30.20
2022-10-16T23:15:29.921Z,28.30
2022-10-16T23:20:31.814Z,28.10
2022-10-16T23:25:33.758Z,29.40
2022-10-16T23:30:40.716Z,30.20
2022-10-16T23:35:42.668Z,33.80
2022-10-16T23:40:44.597Z,33.00
2022-10-16T23:45:46.442Z,30.50
2022-10-16T23:50:48.509Z,31.00
2022-10-16T23:55:50.384Z,29.30
